Tous les Résultats et les Classements des Compétitions E.S.F.

MEMORIAL ESF GETS (LES), le 07/04/2018

Total des 2 Manches



Clt. Identité Code E.S.F. S. An Cat Tps1 Clt1 Tps2 Clt2 Temps
1 DUBOURGEAL ANTOINE MON22518 ESF COMBLOUX M 1982 VH1 34.44 1 38.17 4 1:12.61
2 DELEGLISE NICOLAS MON30078 E.N.S.A. M 1989 SH 36.39 3 37.40 2 1:13.79
3 CHAMBEL LIONEL MON16883 ESF COMBLOUX M 1978 VH2 36.47 4 37.82 3 1:14.29
4 VUILLEMIN CORENTIN MON42727 ESF MEGEVE M 1995 SH 36.23 2 38.67 5 1:14.90
5 SEGERS HUGO MON43495 ESF GETS (LES) M 1998 SH 37.98 12 38.85 6 1:16.83
6 BENAND LAURENT MON18062 ESF CHAPELLE D ABONDANCE (LA) M 1978 VH2 37.67 8 39.28 8 1:16.95
7 BONANO LIONEL MON15655 E.N.S.A. M 1974 VH2 37.71 10 39.32 9 1:17.03
8 DUBREUIL DAVY MON30408 ESF COMBLOUX M 1989 SH 37.84 11 39.48 11 1:17.32
9 MOLINES ROMAIN MON42499 ESF FLAINE M 1996 SH 37.28 5 40.07 15 1:17.35
10 BRONDEX JEREMY MON26705 ESF COMBLOUX M 1987 SH 37.42 7 40.14 18 1:17.56
11 GELLET ROBIN MON43823 ESF GETS (LES) M 1998 SH 38.69 17 38.95 7 1:17.64
12 PONDEVAUX BASTIEN MON43052 ESF GRAND BORNAND (LE) M 1997 SH 37.69 9 40.09 16 1:17.78
13 SAILLET JEREMIE MON41130 ESF BELLEVAUX M 1994 SH 38.54 15 40.19 19 1:18.73
14 ROSSET ALAIN MON26041 ESF ST GERVAIS LES BAINS M 1979 VH1 38.93 18 39.93 14 1:18.86
15 EXERTIER MATHIEU MON43172 ESF MANIGOD M 1997 SH 39.37 23 39.67 13 1:19.04
16 BOTTOLLIER CURTET FLORENT MON2293350 ESF COMBLOUX M 1990 SH 38.20 14 40.93 31 1:19.13
17 GRILLET-AUBERT JACQUES MON14443 ESF CHAPELLE D ABONDANCE (LA) M 1973 VH3 39.09 21 40.40 24 1:19.49
18 BETEMPS ANTHONY MON19282 ESF FLAINE M 1980 VH1 38.56 16 41.16 34 1:19.72
19 THEVENOD CAROLE MON41010 ESF GRAND BORNAND (LE) F 1993 SD 39.54 24 40.19 19 1:19.73
20 DEGOUT JEROME MON16833 ESF GETS (LES) M 1975 VH2 39.55 25 40.25 21 1:19.80
21 DUCREY ELSA MON41582 ESF COMBLOUX F 1995 SD 39.76 29 40.28 22 1:20.04
22 COPPEL ALEXANDRE MON14110 ESF GETS (LES) M 1973 VH3 39.64 27 40.41 25 1:20.05
23 TRINCAZ DAVID MON16061 ESF CHAPELLE D ABONDANCE (LA) M 1976 VH2 39.97 31 40.52 26 1:20.49
24 CHAPOTTE-BERTHET ROMY MON31420 ESF GETS (LES) F 1990 SD 39.95 30 40.59 27 1:20.54
25 BASTARD JEAN LUC MON9512 ESF GETS (LES) M 1959 VH5 40.00 33 40.78 29 1:20.78
26 ANDREOLETY THEO MON43152 ESF GRAND BORNAND (LE) M 1997 SH 40.15 34 40.69 28 1:20.84
27 LATTION LAURENT MON6749 ESF HOUCHES (LES) M 1963 VH5 39.63 26 41.26 35 1:20.89
28 CHAPET PIERRE MON30051 ESF MEGEVE M 1986 SH 39.65 28 41.45 39 1:21.10
29 COMTAT PIERRE ANDRE MON14091 ESF PRAZ DE LYS M 1972 VH3 39.98 32 41.42 38 1:21.40
30 MICHAUD DOMINIQUE MON3147 ESF LELEX M 1962 VH5 40.81 41 40.86 30 1:21.67
31 JORAT ANTHONY MON30981 ESF SOMMAND MIEUSSY M 1990 SH 40.17 35 41.61 41 1:21.78
32 POENCIER PAUL MON7984 ESF COMBLOUX M 1960 VH5 40.61 38 41.46 40 1:22.07
33 GAYET ROMAIN MON22328 ESF ROUSSES (LES) M 1982 VH1 40.85 42 41.34 36 1:22.19
34 CHAMBON FREDERIC MON16540 ESF SAISIES (LES) M 1972 VH3 40.26 36 41.96 43 1:22.22
35 CRUZ LIONEL MON15527 ESF CHATEL M 1965 VH4 41.39 45 41.35 37 1:22.74
36 CHEVRIER ALBAN MON18288 ESF GETS (LES) M 1978 VH2 40.94 43 42.08 44 1:23.02
37 GEVAUX MORGANE MON32630 ESF ARACHES LES CARROZ F 1992 SD 41.81 47 41.91 42 1:23.72
38 BOIMOND CHLOE MON32546 ESF BRASSES (LES) F 1988 D1 41.40 46 42.53 46 1:23.93
39 BAUD CHRISTIAN MON31067 ESF GETS (LES) M 1990 SH 41.24 44 42.84 48 1:24.08
40 JORAT SEBASTIEN MON40330 ESF SOMMAND MIEUSSY M 1993 SH 43.56 60 41.00 33 1:24.56
41 AMEYE THIERRY MON3704 ESF MANIGOD M 1955 VH6 42.44 54 42.76 47 1:25.20
42 DELTEIL MARC MON41983 ESF BELLEVAUX M 1996 SH 42.92 57 42.34 45 1:25.26
43 BERTHOD JEAN MICHEL MON6602 ESF SAISIES (LES) M 1963 VH5 42.04 50 43.30 49 1:25.34
44 DORANGE-PATTORET CLAUDE MON20856 ESF MORILLON - GRAND MASSIF M 1966 VH4 42.07 51 43.33 50 1:25.40
45 THOULE DELPHINE MON18912 ESF CHATEL F 1980 D2 42.48 55 43.45 52 1:25.93
46 BESSON AGATHE MON40814 ESF GRAND BORNAND (LE) F 1994 SD 45.79 68 40.38 23 1:26.17
47 PICHOL PATRICE MON10942 ESF SAISIES (LES) M 1967 VH4 42.28 52 44.08 57 1:26.36
48 LEMAIRE DAVID MON19166 ESF ANNECY SEMNOZ M 1980 VH1 42.39 53 44.25 58 1:26.64
49 MORIN ADRIEN MON31421 ESF GETS (LES) M 1990 SH 43.28 58 43.80 55 1:27.08
50 MEILLEUR KARINE MON21090 ESF SAISIES (LES) F 1980 D2 43.40 59 43.87 56 1:27.27
51 KLUFTS THIERRY MON8276 ESF ARACHES LES CARROZ M 1959 VH5 43.97 62 43.48 53 1:27.45
52 BRIE LUCA MON40271 ESF AURON M 1992 SH 47.45 71 40.12 17 1:27.57
53 DUC MARYSE MON10960 ESF SAISIES (LES) F 1968 D5 43.77 61 44.33 59 1:28.10
54 COPPEL LOUIS MON3215 ESF GETS (LES) M 1948 VH7 44.45 64 44.70 60 1:29.15
55 CAVET ANDRE MON4013 ESF BRASSES (LES) M 1954 VH6 44.33 63 45.57 61 1:29.90
56 CHATELET LETICIA MON42228 ESF MORZINE F 1996 SD 45.12 67 46.55 62 1:31.67
57 CAPRA FABIEN MON32233 ESF ANNECY SEMNOZ M 1969 VH3 46.18 69 47.23 65 1:33.41
58 JACQUARD AMANDINE MON40392 ESF SOMMAND MIEUSSY F 1993 SD 47.08 70 46.69 63 1:33.77
59 CAVET GHISLAINE MON11798 ESF BRASSES (LES) F 1968 D5 50.10 72 48.07 67 1:38.17
60 BAUD JEAN CHARLES MON6431 ESF BELLEVAUX M 1957 VH6 50.30 73 50.82 68 1:41.12
MARCHAND GUILLAUME MON40406 ESF CHATEL M 1993 SH ABD 46.74 64 ABD
BONNET MAXIME MON23982 ESF CHATEL M 1983 VH1 ABD 37.09 1 ABD
MAISTRE JOFFREY MON43663 ESF CLUSAZ (LA) M 1997 SH 37.28 5 ABD ABD
DERUAZ ALAIN MON11796 ESF MANIGOD M 1958 VH6 44.80 65 ABD ABD
DUFOUR LISALINE MON42616 ESF PRAZ DE LYS F 1996 SD ABD 47.62 66 ABD
VUARAND GAUTHIER MON42835 ESF CHAPELLE D ABONDANCE (LA) M 1994 SH 38.95 19 ABD ABD
MUGNIER ARTHUR MON44469 ESF GETS (LES) M 1999 SH ABD DSQ ABD
PERRILLAT-MONET ARTHUR MON41735 ESF GRAND BORNAND (LE) M 1996 SH ABD ABD ABD
DAUTCOURT ALEXIS MON30149 ESF ST GERVAIS LES BAINS M 1987 SH 40.49 37 ABD ABD
DEVILLAZ THIBAULT MON24795 ESF ST GERVAIS LES BAINS M 1986 SH 40.73 39 ABD ABD
ABGRALL EMILIEN MON32583 ESF BERNEX M 1991 SH 41.88 48 ABD ABD
FOURNET LOIC MON17998 ESF ANNECY SEMNOZ M 1977 VH2 ABD ABD ABD
MEYNET-CORDONNIER YOAN MON42913 ESF BELLEVAUX M 1997 SH ABD 39.33 10 ABD
DUFOUR APOLLINE MON41267 ESF BELLEVAUX F 1995 SD ABD 43.39 51 ABD
BALLESTO LUCAS MON41317 ESF SOMMAND MIEUSSY M 1995 SH 42.87 56 ABD ABD
VETTER ANTOINE MON31463 ESF MEGEVE M 1990 SH 39.03 20 ABD ABD
VALENTE SIMON MON31449 ESF SAISIES (LES) M 1989 SH 41.90 49 ABD ABD
FERTE LEO MON40215 ESF GRAND BORNAND (LE) M 1993 SH 40.75 40 ABD ABD
FAVRE-FELIX MAXIME MON41281 ESF CHATEL M 1995 SH 39.10 22 ABD ABD
GUERINDON NICOLAS MON30715 ESF GETS (LES) M 1990 SH ABD 43.48 53 ABD
PETITTI JEROME MON14653 ESF GETS (LES) M 1973 VH3 ABD 39.53 12 ABD
AVELINE MAXENCE MON41593 ESF MANIGOD M 1995 SH 37.98 12 ABD ABD
ARNOD-PRIN MAXIME MON269 ESF MEGEVE M 1949 VH7 44.96 66 DSQ DSQ
ROUX STEPHEN MON30844 ESF MEGEVE M 1990 SH DSQ ABD DSQ
BRUN NICOLAS MON40025 ESF CLUSAZ (LA) M 1993 SH DSQ 40.94 32 DSQ
GERVAIS JACQUES MON14329 ESF BRASSES (LES) M 1971 VH3 ABS - ABS
BECHET BERTRAND MON24831 ESF BERNEX M 1986 SH ABS - ABS
PIETTRE THIERRY MON30438 ESF BERNEX M 1989 SH ABS - ABS
COQUET KILIAN MON43865 ESF NORMA (LA) M 1998 SH ABS - ABS
SOCQUET DOMINIQUE MON9649 ESF COMBLOUX M 1967 VH4 ABS - ABS
GLEZ VERONIQUE MON24796 ESF SAMOENS LES SAIX F 1985 D1 ABS - ABS
PELLOUX MANON MON40995 ESF MEGEVE F 1994 SD ABS - ABS
MUFFAT BORIS MON31456 ESF AVORIAZ M 1990 SH ABS - ABS
MORAND VINCENT MON43262 ESF BELLEVAUX M 1997 SH ABS - ABS
DENARIE LUCAS MON42374 ESF SAMOENS LES SAIX M 1997 SH ABS - ABS
DEBILLE MATTHIEU MON30694 ESF AVORIAZ M 1990 SH ABS - ABS
MAYET GUILLAUME MON22438 ESF ROUSSES (LES) M 1981 VH1 ABS - ABS
ANTHONIOZ NICOLAS MON22967 ESF GETS (LES) M 1981 VH1 ABS - ABS
BERNE PAUL MON5792 ESF CLUSAZ (LA) M 1956 VH6 ABS - ABS
PICCARD LUCIE MON44313 ESF SAISIES (LES) F 1994 SD ABS - ABS
YOUT BAPTISTE MON41076 ESF MEGEVE M 1993 SH ABS - ABS
BENOIT-GUYOD REMY MON4842 ESF ROUSSES (LES) M 1950 VH7 ABS - ABS
AGNELLET MARTIN MON43238 ESF CLUSAZ (LA) M 1997 SH ABS - ABS